Time;durP1;ratioP1;P1;durP2;ratioP2;P2;SDS_P1;SDS_P2;PMS_P1;PMS_P2;Temp;Humidity;BMP_temperature;BMP_pressure;BME280_temperature;BME280_humidity;BME280_pressure;Samples;Min_cycle;Max_cycle;Signal;HPM_P1;HPM_P2
2021/12/11 00:00:14;;;;;;;1.10;1.10;;;;;;;2.04;72.56;99520.06;102937;1316;108797;-78
2021/12/11 00:03:16;;;;;;;1.40;1.40;;;;;;;2.10;73.31;99528.97;102703;1316;140302;-78
2021/12/11 00:05:48;;;;;;;1.30;1.30;;;;;;;2.23;72.96;99536.58;102458;1316;94524;-78
2021/12/11 00:08:20;;;;;;;1.30;1.30;;;;;;;2.24;72.52;99532.91;102472;1315;138985;-78
2021/12/11 00:11:04;;;;;;;1.20;1.20;;;;;;;2.25;72.61;99533.77;102584;1315;109045;-78
2021/12/11 00:13:36;;;;;;;1.20;1.20;;;;;;;2.29;72.41;99532.17;102526;1315;138249;-78
2021/12/11 00:16:07;;;;;;;1.20;1.20;;;;;;;2.43;72.94;99528.39;102519;1316;94736;-78
2021/12/11 00:18:35;;;;;;;1.20;1.20;;;;;;;2.63;72.11;99525.77;102548;1315;109435;-78
2021/12/11 00:21:12;;;;;;;1.10;1.10;;;;;;;2.61;71.60;99528.95;102451;1315;138571;-78
2021/12/11 00:23:51;;;;;;;1.10;1.10;;;;;;;2.57;71.64;99526.17;102603;1315;94371;-77
2021/12/11 00:26:28;;;;;;;1.10;1.10;;;;;;;2.46;71.79;99525.91;102308;1317;137756;-78
2021/12/11 00:28:57;;;;;;;1.20;1.20;;;;;;;2.36;72.32;99526.34;102412;1315;109410;-77
2021/12/11 00:31:27;;;;;;;1.20;1.20;;;;;;;2.48;72.27;99533.44;102297;1316;139353;-78
2021/12/11 00:33:55;;;;;;;1.20;1.20;;;;;;;2.52;71.93;99531.30;102538;1316;93950;-77
2021/12/11 00:36:28;;;;;;;1.20;1.20;;;;;;;2.63;72.31;99529.82;102327;1315;94501;-78
2021/12/11 00:39:05;;;;;;;1.20;1.20;;;;;;;2.72;71.43;99533.23;102276;1316;138993;-77
2021/12/11 00:41:33;;;;;;;1.10;1.10;;;;;;;2.75;71.63;99536.91;102288;1317;109224;-77
2021/12/11 00:44:01;;;;;;;1.10;1.10;;;;;;;2.81;71.05;99542.46;102370;1315;139476;-78
2021/12/11 00:46:31;;;;;;;1.10;1.10;;;;;;;2.76;71.36;99545.30;102361;1315;94378;-77
2021/12/11 00:49:21;;;;;;;1.20;1.20;;;;;;;2.75;71.45;99549.01;102328;1318;109685;-78
2021/12/11 00:51:57;;;;;;;1.10;1.10;;;;;;;2.62;71.09;99547.52;102592;1315;109049;-78
2021/12/11 00:54:24;;;;;;;1.10;1.10;;;;;;;2.50;71.62;99547.96;102399;1315;94825;-78
2021/12/11 00:56:52;;;;;;;1.10;1.10;;;;;;;2.40;71.42;99550.84;102262;1315;137529;-78
2021/12/11 00:59:21;;;;;;;1.20;1.20;;;;;;;2.25;71.80;99555.32;102268;1316;108082;-78
2021/12/11 01:01:56;;;;;;;1.20;1.20;;;;;;;2.21;72.54;99558.83;102185;1316;139848;-78
2021/12/11 01:04:40;;;;;;;1.20;1.20;;;;;;;2.10;72.48;99555.58;102402;1316;94364;-78
2021/12/11 01:07:18;;;;;;;1.10;1.10;;;;;;;2.02;73.14;99559.29;102302;1317;94233;-77
2021/12/11 01:10:00;;;;;;;1.40;1.40;;;;;;;2.11;73.56;99562.58;102444;1314;138797;-77
2021/12/11 01:12:46;;;;;;;1.20;1.20;;;;;;;2.25;72.99;99566.34;102479;1316;109054;-77
2021/12/11 01:15:16;;;;;;;1.10;1.10;;;;;;;2.18;72.65;99565.34;102400;1315;138297;-78
2021/12/11 01:18:21;;;;;;;1.20;1.20;;;;;;;2.02;71.94;99571.73;102491;1315;94435;-78
2021/12/11 01:21:12;;;;;;;1.20;1.20;;;;;;;1.93;72.66;99578.77;102350;1315;139094;-78
2021/12/11 01:26:22;;;;;;;1.20;1.20;;;;;;;1.90;72.71;99584.90;102185;1322;140209;-77
2021/12/11 01:28:51;;;;;;;1.10;1.10;;;;;;;1.88;73.41;99585.08;102478;1315;94257;-78
2021/12/11 01:31:21;;;;;;;1.30;1.30;;;;;;;1.99;74.11;99585.04;102244;1318;109662;-78
2021/12/11 01:33:51;;;;;;;1.30;1.30;;;;;;;2.10;72.76;99592.34;102389;1313;140265;-78
2021/12/11 01:36:19;;;;;;;1.20;1.20;;;;;;;2.16;72.96;99590.91;102463;1316;94551;-77
2021/12/11 01:38:47;;;;;;;1.10;1.10;;;;;;;2.24;72.78;99592.97;102344;1315;139072;-78
2021/12/11 01:41:20;;;;;;;1.20;1.20;;;;;;;2.34;72.49;99589.59;102292;1316;109627;-78
2021/12/11 01:43:52;;;;;;;1.30;1.30;;;;;;;2.32;72.21;99592.92;102416;1316;138728;-78
2021/12/11 01:46:24;;;;;;;1.20;1.20;;;;;;;2.28;71.93;99596.97;102588;1315;94375;-78
2021/12/11 01:48:58;;;;;;;1.20;1.20;;;;;;;2.24;72.57;99603.30;102464;1316;94257;-78
2021/12/11 01:51:42;;;;;;;1.20;1.20;;;;;;;2.24;72.43;99603.65;102364;1315;139018;-78
2021/12/11 01:54:17;;;;;;;1.10;1.10;;;;;;;2.16;72.14;99606.14;102504;1316;109693;-78
2021/12/11 01:56:49;;;;;;;1.20;1.20;;;;;;;2.12;72.93;99607.57;102415;1315;137914;-79
2021/12/11 01:59:25;;;;;;;1.20;1.20;;;;;;;2.23;73.01;99610.14;102979;1316;94810;-77
2021/12/11 02:02:06;;;;;;;1.10;1.10;;;;;;;2.18;72.35;99608.59;102448;1315;140042;-79
2021/12/11 02:04:37;;;;;;;1.20;1.20;;;;;;;2.10;72.57;99607.76;102482;1316;106403;-77
2021/12/11 02:07:16;;;;;;;1.20;1.20;;;;;;;2.11;72.78;99607.39;102562;1315;94701;-77
2021/12/11 02:09:51;;;;;;;1.10;1.10;;;;;;;2.19;71.75;99606.48;102448;1315;138054;-78
2021/12/11 02:12:22;;;;;;;1.10;1.10;;;;;;;2.11;71.57;99613.01;102540;1315;109584;-77
2021/12/11 02:14:52;;;;;;;1.30;1.30;;;;;;;2.00;71.71;99615.33;102386;1316;139584;-78
2021/12/11 02:17:28;;;;;;;1.20;1.20;;;;;;;2.01;72.27;99616.20;102486;1315;94615;-78
2021/12/11 02:19:58;;;;;;;1.10;1.10;;;;;;;2.12;72.53;99622.45;102480;1316;140184;-78
2021/12/11 02:22:30;;;;;;;1.10;1.10;;;;;;;2.37;72.28;99624.95;102473;1316;109348;-78
2021/12/11 02:25:01;;;;;;;1.10;1.10;;;;;;;2.49;71.59;99624.02;102476;1316;108938;-78
2021/12/11 02:27:35;;;;;;;1.20;1.20;;;;;;;2.67;71.50;99633.36;102478;1317;139865;-78
2021/12/11 02:30:20;;;;;;;1.20;1.20;;;;;;;2.72;70.72;99643.32;102544;1315;94586;-78
2021/12/11 02:33:03;;;;;;;1.10;1.10;;;;;;;2.72;70.50;99645.08;102333;1315;139088;-78
2021/12/11 02:35:36;;;;;;;1.20;1.20;;;;;;;2.76;71.13;99642.59;102484;1315;107443;-77
2021/12/11 02:38:29;;;;;;;1.20;1.20;;;;;;;2.91;70.74;99641.95;102365;1315;139482;-78
2021/12/11 02:41:03;;;;;;;1.20;1.20;;;;;;;2.94;69.61;99647.20;102383;1316;94180;-78
2021/12/11 02:43:39;;;;;;;1.20;1.20;;;;;;;2.82;70.12;99647.11;102380;1312;137688;-78
2021/12/11 02:46:22;;;;;;;1.20;1.20;;;;;;;2.92;70.19;99650.20;102389;1316;109132;-78
2021/12/11 02:48:58;;;;;;;1.20;1.20;;;;;;;3.04;70.02;99654.67;102470;1317;94329;-78
2021/12/11 02:51:37;;;;;;;1.10;1.10;;;;;;;3.05;69.24;99662.73;102188;1321;140111;-78
2021/12/11 02:54:09;;;;;;;1.10;1.10;;;;;;;2.78;68.89;99673.79;102142;1316;109414;-78
2021/12/11 02:56:43;;;;;;;1.10;1.10;;;;;;;2.59;69.90;99677.92;102086;1318;140446;-78
2021/12/11 02:59:15;;;;;;;1.10;1.10;;;;;;;2.61;70.09;99686.51;102426;1315;94667;-78
2021/12/11 03:01:54;;;;;;;1.10;1.10;;;;;;;2.60;70.11;99688.61;102328;1315;140020;-78
2021/12/11 03:04:31;;;;;;;1.20;1.20;;;;;;;2.59;70.35;99695.63;102424;1317;109402;-78
2021/12/11 03:07:02;;;;;;;1.20;1.20;;;;;;;2.55;70.28;99694.41;102427;1315;108808;-78
2021/12/11 03:09:34;;;;;;;1.20;1.20;;;;;;;2.51;69.98;99693.39;102257;1317;138168;-78
2021/12/11 03:12:05;;;;;;;1.20;1.20;;;;;;;2.38;70.38;99700.10;102337;1316;94523;-78
2021/12/11 03:14:33;;;;;;;1.20;1.20;;;;;;;2.32;70.90;99696.46;102180;1318;142261;-78
2021/12/11 03:17:01;;;;;;;1.20;1.20;;;;;;;2.31;70.92;99692.95;102397;1312;108944;-78
2021/12/11 03:19:32;;;;;;;1.40;1.40;;;;;;;2.21;70.60;99696.48;102366;1315;94702;-78
2021/12/11 03:22:10;;;;;;;1.30;1.30;;;;;;;2.16;70.62;99696.51;102365;1315;138704;-78
2021/12/11 03:24:38;;;;;;;1.10;1.10;;;;;;;2.17;71.56;99690.72;102305;1316;105467;-78
2021/12/11 03:27:07;;;;;;;1.20;1.20;;;;;;;2.22;71.49;99694.05;102232;1315;138499;-78
2021/12/11 03:29:35;;;;;;;1.20;1.20;;;;;;;2.13;71.38;99695.46;102219;1316;94329;-78
2021/12/11 03:32:06;;;;;;;1.20;1.20;;;;;;;2.02;71.98;99699.18;102254;1315;139305;-78
2021/12/11 03:34:36;;;;;;;1.20;1.20;;;;;;;2.16;72.30;99691.61;102337;1314;109499;-77
2021/12/11 03:37:06;;;;;;;1.30;1.30;;;;;;;2.20;71.63;99695.45;102249;1316;107789;-78
2021/12/11 03:39:39;;;;;;;1.20;1.20;;;;;;;2.19;71.49;99707.53;102257;1315;140763;-78
2021/12/11 03:42:14;;;;;;;1.30;1.30;;;;;;;2.18;71.55;99715.77;102579;1316;95489;-78
2021/12/11 03:44:43;;;;;;;1.20;1.20;;;;;;;2.15;71.75;99712.27;102319;1316;139180;-78
2021/12/11 03:47:16;;;;;;;1.20;1.20;;;;;;;2.12;71.17;99709.30;102379;1312;108881;-78
2021/12/11 03:49:45;;;;;;;1.30;1.30;;;;;;;1.93;71.70;99708.84;102378;1315;138553;-77
2021/12/11 03:52:13;;;;;;;1.60;1.60;;;;;;;1.85;71.44;99714.80;102420;1315;94215;-78
2021/12/11 03:54:43;;;;;;;1.30;1.30;;;;;;;1.72;71.92;99722.70;102426;1314;107909;-78
2021/12/11 03:57:15;;;;;;;1.20;1.20;;;;;;;1.60;72.13;99724.63;102428;1316;138722;-78
2021/12/11 03:59:47;;;;;;;1.30;1.30;;;;;;;1.53;72.41;99727.97;102607;1316;94133;-78
2021/12/11 04:02:21;;;;;;;1.30;1.30;;;;;;;1.47;72.99;99729.54;102745;1315;138046;-78
2021/12/11 04:04:53;;;;;;;1.30;1.30;;;;;;;1.43;72.61;99730.77;102682;1315;108443;-78
2021/12/11 04:07:26;;;;;;;1.30;1.30;;;;;;;1.40;72.97;99730.59;102569;1315;108743;-78
2021/12/11 04:09:54;;;;;;;1.20;1.20;;;;;;;1.51;73.24;99731.46;102632;1316;139811;-78
2021/12/11 04:12:24;;;;;;;1.30;1.30;;;;;;;1.47;72.70;99733.05;102810;1316;94305;-78
2021/12/11 04:14:54;;;;;;;1.30;1.30;;;;;;;1.39;73.20;99730.95;103123;1316;138881;-78
2021/12/11 04:17:25;;;;;;;1.30;1.30;;;;;;;1.36;73.04;99728.31;104250;1314;108968;-78
2021/12/11 04:19:58;;;;;;;1.20;1.20;;;;;;;1.37;73.08;99731.11;102849;1316;138689;-78
2021/12/11 04:22:26;;;;;;;1.30;1.30;;;;;;;1.38;73.39;99733.38;102798;1316;94437;-78
2021/12/11 04:24:54;;;;;;;1.20;1.20;;;;;;;1.56;74.36;99736.36;102417;1315;108385;-78
2021/12/11 04:27:24;;;;;;;1.30;1.30;;;;;;;1.81;73.57;99737.73;102709;1314;138445;-77
2021/12/11 04:29:53;;;;;;;1.20;1.20;;;;;;;1.88;72.52;99737.73;102827;1313;94324;-78
2021/12/11 04:32:28;;;;;;;1.20;1.20;;;;;;;1.94;72.61;99735.61;103082;1314;139630;-78
2021/12/11 04:34:56;;;;;;;1.50;1.50;;;;;;;1.97;72.24;99743.14;102314;1315;109414;-77
2021/12/11 04:37:28;;;;;;;1.30;1.30;;;;;;;2.04;72.94;99745.75;101868;1315;108921;-78
2021/12/11 04:40:03;;;;;;;1.30;1.30;;;;;;;2.20;72.24;99744.84;101861;1315;138675;-78
2021/12/11 04:42:47;;;;;;;1.20;1.20;;;;;;;2.29;71.84;99747.79;101990;1315;94514;-78
2021/12/11 04:45:19;;;;;;;1.20;1.20;;;;;;;2.30;71.25;99752.17;101796;1315;137627;-78
2021/12/11 04:47:54;;;;;;;1.20;1.20;;;;;;;2.40;72.05;99755.80;102251;1316;108783;-78
2021/12/11 04:50:38;;;;;;;1.20;1.20;;;;;;;2.56;71.23;99756.10;101909;1316;140198;-78
2021/12/11 04:53:22;;;;;;;1.20;1.20;;;;;;;2.70;71.13;99756.21;102372;1316;94451;-78
2021/12/11 05:01:29;;;;;;;1.20;1.20;;;;;;;2.83;69.65;99766.66;102536;1315;94244;-78
2021/12/11 05:07:03;;;;;;;1.10;1.10;;;;;;;3.04;69.62;99766.55;102552;1315;108529;-78
2021/12/11 05:09:41;;;;;;;1.20;1.20;;;;;;;2.97;69.49;99774.84;102455;1315;141074;-78
2021/12/11 05:14:42;;;;;;;1.10;1.10;;;;;;;3.08;69.50;99781.27;102612;1314;139311;-78
2021/12/11 05:17:10;;;;;;;1.10;1.10;;;;;;;3.24;69.61;99781.87;102505;1315;109636;-78
2021/12/11 05:19:39;;;;;;;1.10;1.10;;;;;;;3.30;69.11;99788.50;102535;1315;108986;-78
2021/12/11 05:22:07;;;;;;;1.10;1.10;;;;;;;3.31;69.04;99789.02;102483;1315;139119;-78
2021/12/11 05:24:38;;;;;;;1.10;1.10;;;;;;;3.39;68.96;99795.64;102553;1316;94492;-78
2021/12/11 05:27:06;;;;;;;1.10;1.10;;;;;;;3.44;68.68;99797.52;102335;1315;138076;-78
2021/12/11 05:29:34;;;;;;;1.10;1.10;;;;;;;3.46;68.45;99798.75;102432;1315;108781;-79
2021/12/11 05:32:04;;;;;;;1.10;1.10;;;;;;;3.46;68.18;99805.05;102748;1315;138683;-79
2021/12/11 05:34:32;;;;;;;1.10;1.10;;;;;;;3.27;68.26;99803.61;102901;1315;94397;-77
2021/12/11 05:37:01;;;;;;;1.10;1.10;;;;;;;3.28;68.85;99801.67;102526;1315;109434;-77
2021/12/11 05:39:28;;;;;;;1.10;1.10;;;;;;;3.38;68.54;99802.13;102230;1315;139940;-77
2021/12/11 05:41:57;;;;;;;1.10;1.10;;;;;;;3.46;68.41;99807.34;102588;1316;94288;-78
2021/12/11 05:44:24;;;;;;;1.10;1.10;;;;;;;3.53;68.36;99805.89;102406;1315;140319;-77
2021/12/11 05:46:53;;;;;;;1.00;1.00;;;;;;;3.60;68.05;99810.05;102544;1315;108428;-78
2021/12/11 05:49:22;;;;;;;1.10;1.10;;;;;;;3.59;67.82;99819.38;101993;1316;108913;-78
2021/12/11 05:51:50;;;;;;;1.20;1.20;;;;;;;3.56;67.67;99818.51;102451;1316;139397;-77
2021/12/11 05:54:24;;;;;;;1.10;1.10;;;;;;;3.52;67.99;99820.98;102400;1317;94323;-77
2021/12/11 05:56:56;;;;;;;1.20;1.20;;;;;;;3.59;68.06;99818.48;102176;1315;139418;-77
2021/12/11 05:59:24;;;;;;;1.10;1.10;;;;;;;3.64;67.85;99822.48;102472;1315;108940;-77
2021/12/11 06:02:04;;;;;;;1.10;1.10;;;;;;;3.69;67.64;99823.14;102430;1316;139105;-77
2021/12/11 06:04:36;;;;;;;1.10;1.10;;;;;;;3.58;67.32;99829.38;102702;1316;94363;-78
2021/12/11 06:07:06;;;;;;;1.10;1.10;;;;;;;3.54;67.73;99830.11;102430;1317;109845;-79
2021/12/11 06:09:36;;;;;;;1.00;1.00;;;;;;;3.59;67.70;99831.47;102497;1316;140039;-78
2021/12/11 06:12:08;;;;;;;1.10;1.10;;;;;;;3.60;67.90;99833.39;102751;1316;94347;-78
2021/12/11 06:14:37;;;;;;;1.30;1.30;;;;;;;3.64;67.52;99830.73;102672;1316;137874;-78
2021/12/11 06:17:07;;;;;;;1.10;1.10;;;;;;;3.63;67.71;99830.21;102653;1316;107915;-78
2021/12/11 06:19:35;;;;;;;1.10;1.10;;;;;;;3.69;67.68;99835.27;102631;1316;107357;-78
2021/12/11 06:22:03;;;;;;;1.00;1.00;;;;;;;3.73;67.35;99838.56;102505;1316;138217;-78
2021/12/11 06:24:31;;;;;;;1.10;1.10;;;;;;;3.63;67.53;99849.88;102652;1311;95409;-78
2021/12/11 06:26:59;;;;;;;1.10;1.10;;;;;;;3.67;67.53;99853.19;102465;1315;139205;-78
2021/12/11 06:29:27;;;;;;;1.10;1.10;;;;;;;3.73;67.39;99854.71;102599;1316;109067;-78
2021/12/11 06:31:56;;;;;;;1.10;1.10;;;;;;;3.80;67.47;99853.79;102493;1316;139821;-78
2021/12/11 06:34:25;;;;;;;1.00;1.00;;;;;;;3.85;67.15;99855.34;102704;1316;94329;-78
2021/12/11 06:36:53;;;;;;;1.10;1.10;;;;;;;3.75;66.74;99860.31;102566;1316;108596;-78
2021/12/11 06:39:22;;;;;;;1.20;1.20;;;;;;;3.61;67.40;99861.83;102413;1314;139879;-78
2021/12/11 06:41:54;;;;;;;1.00;1.00;;;;;;;3.64;67.46;99861.63;102598;1315;94398;-78
2021/12/11 06:44:27;;;;;;;1.00;1.00;;;;;;;3.46;67.16;99860.87;102557;1316;139394;-78
2021/12/11 06:46:59;;;;;;;1.00;1.00;;;;;;;3.34;68.34;99863.40;102612;1316;109503;-78
2021/12/11 06:49:29;;;;;;;1.10;1.10;;;;;;;3.50;68.07;99870.33;102757;1314;108965;-78
2021/12/11 06:51:57;;;;;;;1.10;1.10;;;;;;;3.64;68.03;99879.54;102504;1314;140836;-78
2021/12/11 06:54:25;;;;;;;1.00;1.00;;;;;;;3.75;67.58;99877.53;102570;1315;94448;-78
2021/12/11 06:56:54;;;;;;;1.10;1.10;;;;;;;3.80;67.43;99872.06;102532;1315;139408;-78
2021/12/11 06:59:22;;;;;;;1.10;1.10;;;;;;;3.78;67.11;99867.67;102597;1317;106873;-78
2021/12/11 07:01:50;;;;;;;1.00;1.00;;;;;;;3.82;67.44;99871.52;102515;1316;138453;-78
2021/12/11 07:04:18;;;;;;;1.00;1.00;;;;;;;3.92;67.40;99873.38;102555;1315;94319;-79
2021/12/11 07:06:50;;;;;;;1.30;1.30;;;;;;;3.99;66.90;99877.19;102608;1314;109373;-78
2021/12/11 07:09:19;;;;;;;1.10;1.10;;;;;;;4.03;66.88;99879.27;102580;1315;138769;-78
2021/12/11 07:11:48;;;;;;;1.00;1.00;;;;;;;4.01;66.74;99881.55;102655;1316;94358;-78
2021/12/11 07:14:17;;;;;;;1.00;1.00;;;;;;;4.02;66.77;99887.34;102586;1315;140379;-78
2021/12/11 07:16:46;;;;;;;1.00;1.00;;;;;;;4.02;66.67;99892.63;102965;1315;108833;-79
2021/12/11 07:19:15;;;;;;;1.00;1.00;;;;;;;4.02;66.64;99892.62;102166;1313;107457;-79
2021/12/11 07:21:43;;;;;;;1.00;1.00;;;;;;;4.00;66.57;99899.13;102786;1315;139621;-77
2021/12/11 07:24:13;;;;;;;1.00;1.00;;;;;;;3.97;66.74;99904.42;102619;1315;94237;-77
2021/12/11 07:26:41;;;;;;;1.00;1.00;;;;;;;4.01;66.79;99903.86;102392;1315;139645;-78
2021/12/11 07:29:15;;;;;;;1.10;1.10;;;;;;;4.04;66.88;99909.80;102495;1315;109492;-78
2021/12/11 07:31:45;;;;;;;1.10;1.10;;;;;;;4.10;66.64;99912.23;102562;1315;95237;-78
2021/12/11 07:34:15;;;;;;;1.20;1.20;;;;;;;4.17;66.58;99919.36;102394;1316;138538;-77
2021/12/11 07:36:43;;;;;;;1.00;1.00;;;;;;;4.22;66.51;99915.64;102526;1317;109512;-78
2021/12/11 07:39:14;;;;;;;1.00;1.00;;;;;;;4.20;66.39;99915.48;102596;1315;138739;-79
2021/12/11 07:41:42;;;;;;;1.00;1.00;;;;;;;4.20;66.45;99917.24;102667;1315;94478;-77
2021/12/11 07:44:10;;;;;;;1.00;1.00;;;;;;;4.23;66.48;99925.84;102520;1316;140049;-77
2021/12/11 07:46:38;;;;;;;1.00;1.00;;;;;;;4.29;66.37;99926.83;102562;1316;110135;-76
2021/12/11 07:49:06;;;;;;;1.00;1.00;;;;;;;4.37;66.13;99935.04;102395;1316;109011;-76
2021/12/11 07:51:37;;;;;;;1.10;1.10;;;;;;;4.36;66.09;99936.96;102355;1316;139165;-77
2021/12/11 07:54:06;;;;;;;1.10;1.10;;;;;;;4.34;66.33;99937.34;102607;1315;94327;-77
2021/12/11 07:56:35;;;;;;;1.00;1.00;;;;;;;4.36;66.05;99939.61;102332;1315;140279;-76
2021/12/11 07:59:05;;;;;;;1.10;1.10;;;;;;;4.42;66.20;99940.44;102471;1315;108905;-76
2021/12/11 08:01:35;;;;;;;1.00;1.00;;;;;;;4.46;66.12;99944.98;102420;1315;94605;-77
2021/12/11 08:04:05;;;;;;;1.10;1.10;;;;;;;4.50;65.68;99951.26;102433;1313;139835;-76
2021/12/11 08:06:35;;;;;;;1.00;1.00;;;;;;;4.48;65.82;99948.83;102545;1316;109454;-76
2021/12/11 08:09:06;;;;;;;1.00;1.00;;;;;;;4.51;66.02;99948.62;102367;1315;138844;-77
2021/12/11 08:11:34;;;;;;;1.10;1.10;;;;;;;4.50;65.64;99959.01;102470;1316;94968;-77
2021/12/11 08:14:03;;;;;;;1.00;1.00;;;;;;;4.46;65.82;99963.08;102442;1315;139967;-74
2021/12/11 08:16:43;;;;;;;1.00;1.00;;;;;;;4.47;65.94;99967.83;102528;1315;109705;-77
2021/12/11 08:19:14;;;;;;;1.00;1.00;;;;;;;4.49;65.74;99976.06;102326;1316;109015;-77
2021/12/11 08:21:43;;;;;;;1.10;1.10;;;;;;;4.55;65.78;99981.81;102290;1316;140976;-77
2021/12/11 08:24:11;;;;;;;1.10;1.10;;;;;;;4.56;65.69;99980.05;102442;1315;94875;-77
2021/12/11 08:26:40;;;;;;;1.10;1.10;;;;;;;4.65;65.68;99983.48;102334;1316;139130;-77
2021/12/11 08:29:10;;;;;;;1.10;1.10;;;;;;;4.67;65.29;99987.69;102337;1317;109193;-77
2021/12/11 08:31:41;;;;;;;1.00;1.00;;;;;;;4.67;65.37;99992.63;102541;1315;94627;-77
2021/12/11 08:34:09;;;;;;;1.00;1.00;;;;;;;4.67;65.39;99996.83;102316;1316;139300;-77
2021/12/11 08:36:38;;;;;;;0.90;0.90;;;;;;;4.73;65.42;100001.88;102622;1315;109418;-77
2021/12/11 08:39:10;;;;;;;0.90;0.90;;;;;;;4.76;65.17;100005.54;102526;1316;140343;-77
2021/12/11 08:41:39;;;;;;;1.00;1.00;;;;;;;4.77;65.25;100003.96;102791;1315;94439;-78
2021/12/11 08:44:12;;;;;;;1.00;1.00;;;;;;;4.73;65.01;100008.92;102552;1316;139141;-76
2021/12/11 08:46:44;;;;;;;1.10;1.10;;;;;;;4.67;65.35;100014.77;102347;1316;108523;-77
2021/12/11 08:49:20;;;;;;;1.00;1.00;;;;;;;4.69;65.42;100019.85;102201;1316;107995;-77
2021/12/11 08:51:58;;;;;;;0.90;0.90;;;;;;;4.70;65.32;100022.49;102292;1315;139027;-77
2021/12/11 08:54:28;;;;;;;1.00;1.00;;;;;;;4.62;65.21;100027.83;102728;1314;94512;-78
2021/12/11 08:56:59;;;;;;;1.00;1.00;;;;;;;4.41;65.38;100027.63;102658;1315;139052;-78
2021/12/11 08:59:29;;;;;;;1.00;1.00;;;;;;;4.32;65.60;100031.57;102699;1315;109020;-78
2021/12/11 09:01:56;;;;;;;1.00;1.00;;;;;;;4.22;66.01;100030.74;102261;1316;139327;-78
2021/12/11 09:04:27;;;;;;;1.00;1.00;;;;;;;4.23;66.02;100031.45;102456;1316;94333;-77
2021/12/11 09:06:59;;;;;;;1.10;1.10;;;;;;;4.11;65.85;100039.08;102393;1315;109889;-77
2021/12/11 09:09:53;;;;;;;1.00;1.00;;;;;;;3.98;65.95;100048.63;102517;1316;139141;-77
2021/12/11 09:12:24;;;;;;;1.00;1.00;;;;;;;3.89;66.48;100052.71;102778;1316;94420;-77
2021/12/11 09:14:57;;;;;;;1.00;1.00;;;;;;;3.92;66.59;100053.39;102642;1316;139053;-77
2021/12/11 09:17:30;;;;;;;1.00;1.00;;;;;;;4.02;66.68;100057.38;102625;1316;109550;-77
2021/12/11 09:20:13;;;;;;;1.00;1.00;;;;;;;4.10;66.51;100063.68;102568;1316;139983;-78
2021/12/11 09:22:48;;;;;;;1.00;1.00;;;;;;;4.16;66.59;100064.52;102647;1316;94312;-77
2021/12/11 09:25:22;;;;;;;1.00;1.00;;;;;;;4.20;66.37;100068.71;102882;1316;94318;-77
2021/12/11 09:28:11;;;;;;;1.00;1.00;;;;;;;4.18;66.27;100066.97;102706;1315;138990;-78
2021/12/11 09:30:41;;;;;;;1.10;1.10;;;;;;;4.18;66.12;100070.13;102835;1315;108643;-78
2021/12/11 09:33:17;;;;;;;1.00;1.00;;;;;;;4.19;66.27;100075.75;102838;1315;139411;-77
2021/12/11 09:35:52;;;;;;;1.10;1.10;;;;;;;4.23;66.49;100082.41;102870;1316;94350;-78
2021/12/11 09:38:23;;;;;;;1.00;1.00;;;;;;;4.31;66.49;100093.43;102734;1316;137990;-78
2021/12/11 09:40:51;;;;;;;1.10;1.10;;;;;;;4.34;66.34;100097.11;102857;1316;109358;-80
2021/12/11 09:43:28;;;;;;;1.00;1.00;;;;;;;4.39;66.24;100102.52;103212;1316;94379;-78
2021/12/11 09:45:56;;;;;;;1.00;1.00;;;;;;;4.46;65.86;100104.07;103048;1316;139236;-79
2021/12/11 09:48:24;;;;;;;1.00;1.00;;;;;;;4.38;65.62;100101.82;103105;1315;109426;-79
2021/12/11 09:51:00;;;;;;;1.10;1.10;;;;;;;4.32;65.87;100102.38;103167;1315;136743;-81
2021/12/11 09:53:34;;;;;;;1.00;1.00;;;;;;;4.31;66.08;100104.14;103214;1315;94145;-78
2021/12/11 09:56:07;;;;;;;0.90;0.90;;;;;;;4.30;66.16;100107.49;102589;1315;139283;-76
2021/12/11 09:58:38;;;;;;;1.00;1.00;;;;;;;4.35;65.93;100111.17;102813;1316;109561;-78
2021/12/11 10:01:10;;;;;;;1.00;1.00;;;;;;;4.35;65.93;100111.52;102929;1316;108860;-76
2021/12/11 10:03:51;;;;;;;1.00;1.00;;;;;;;4.34;65.96;100116.45;102735;1316;139719;-78
2021/12/11 10:06:49;;;;;;;0.90;0.90;;;;;;;4.32;65.98;100119.09;102872;1315;94240;-78
2021/12/11 10:09:21;;;;;;;0.90;0.90;;;;;;;4.37;65.96;100123.27;102715;1315;139576;-78
2021/12/11 10:11:59;;;;;;;1.20;1.20;;;;;;;4.41;65.69;100127.66;103127;1316;109666;-78
2021/12/11 10:14:36;;;;;;;1.00;1.00;;;;;;;4.36;65.83;100130.32;102713;1316;139072;-78
2021/12/11 10:17:27;;;;;;;1.10;1.10;;;;;;;4.42;65.76;100131.34;102330;1315;94560;-78
2021/12/11 10:19:57;;;;;;;1.00;1.00;;;;;;;4.47;65.76;100134.81;102617;1316;138441;-78
2021/12/11 10:22:29;;;;;;;1.00;1.00;;;;;;;4.47;65.62;100134.47;102912;1315;108908;-78
2021/12/11 10:24:59;;;;;;;1.10;1.10;;;;;;;4.49;66.18;100139.91;102893;1315;93880;-79
2021/12/11 10:27:29;;;;;;;1.00;1.00;;;;;;;4.52;66.22;100148.32;102858;1315;138726;-79
2021/12/11 10:29:59;;;;;;;1.00;1.00;;;;;;;4.53;66.38;100145.34;103243;1315;109969;-79
2021/12/11 10:32:31;;;;;;;0.90;0.90;;;;;;;4.59;65.86;100144.59;103443;1314;138831;-79
2021/12/11 10:35:12;;;;;;;1.00;1.00;;;;;;;4.59;65.46;100142.66;103422;1315;94317;-79
2021/12/11 10:37:41;;;;;;;0.90;0.90;;;;;;;4.55;65.47;100148.13;103412;1314;94181;-79
2021/12/11 10:40:17;;;;;;;0.90;0.90;;;;;;;4.52;65.34;100155.54;103238;1316;139466;-79
2021/12/11 10:42:52;;;;;;;0.90;0.90;;;;;;;4.49;65.54;100161.88;103448;1314;107410;-79
2021/12/11 10:45:20;;;;;;;0.90;0.90;;;;;;;4.56;65.49;100165.89;103313;1316;138569;-80
2021/12/11 10:47:58;;;;;;;1.00;1.00;;;;;;;4.52;65.54;100166.97;103825;1316;94204;-79
2021/12/11 10:50:33;;;;;;;1.00;1.00;;;;;;;4.54;65.69;100165.02;104215;1316;139437;-79
2021/12/11 10:53:09;;;;;;;0.90;0.90;;;;;;;4.54;65.51;100163.09;104368;1316;108979;-80
2021/12/11 10:55:37;;;;;;;0.90;0.90;;;;;;;4.49;65.43;100159.08;104352;1315;94258;-80
2021/12/11 10:58:15;;;;;;;0.90;0.90;;;;;;;4.50;65.32;100159.41;104079;1315;138840;-79
2021/12/11 11:00:48;;;;;;;0.90;0.90;;;;;;;4.54;65.26;100156.05;104289;1314;109900;-79
2021/12/11 11:03:20;;;;;;;1.00;1.00;;;;;;;4.63;65.29;100160.75;104267;1315;139183;-79
2021/12/11 11:05:49;;;;;;;0.90;0.90;;;;;;;4.62;65.03;100163.92;103874;1315;94263;-79
2021/12/11 11:08:17;;;;;;;0.90;0.90;;;;;;;4.59;65.25;100167.45;103114;1315;138734;-79
2021/12/11 11:10:50;;;;;;;1.00;1.00;;;;;;;4.65;65.11;100169.52;103050;1315;108380;-78
2021/12/11 11:13:21;;;;;;;0.90;0.90;;;;;;;4.70;64.91;100161.42;103174;1315;109071;-79
2021/12/11 11:15:49;;;;;;;1.00;1.00;;;;;;;4.76;64.67;100160.85;102856;1316;139073;-79
2021/12/11 11:18:19;;;;;;;1.00;1.00;;;;;;;4.73;64.69;100157.00;103060;1316;94901;-78
2021/12/11 11:20:57;;;;;;;1.00;1.00;;;;;;;4.66;64.75;100157.92;102828;1313;138208;-78
2021/12/11 11:23:25;;;;;;;0.90;0.90;;;;;;;4.61;64.94;100165.67;103023;1316;107095;-79
2021/12/11 11:25:55;;;;;;;0.90;0.90;;;;;;;4.59;64.99;100176.08;102998;1316;139823;-79
2021/12/11 11:28:26;;;;;;;0.90;0.90;;;;;;;4.55;64.96;100177.48;103178;1316;94776;-78
2021/12/11 11:30:58;;;;;;;1.00;1.00;;;;;;;4.57;65.29;100179.08;103377;1316;109620;-78
2021/12/11 11:33:27;;;;;;;0.90;0.90;;;;;;;4.58;65.17;100184.34;103337;1316;139785;-79
2021/12/11 11:35:58;;;;;;;0.80;0.80;;;;;;;4.66;65.26;100191.16;103422;1316;94289;-79
2021/12/11 11:38:29;;;;;;;1.00;1.00;;;;;;;4.71;65.17;100199.92;103363;1316;139501;-79
2021/12/11 11:41:04;;;;;;;1.00;1.00;;;;;;;4.57;65.34;100210.54;103400;1316;108771;-78
2021/12/11 11:43:32;;;;;;;0.90;0.90;;;;;;;4.52;65.93;100213.20;103434;1316;109098;-79
2021/12/11 11:46:00;;;;;;;0.90;0.90;;;;;;;4.65;65.82;100213.66;103077;1316;138838;-79
2021/12/11 11:48:31;;;;;;;0.90;0.90;;;;;;;4.76;65.57;100217.83;103058;1316;94556;-79
2021/12/11 11:51:21;;;;;;;0.90;0.90;;;;;;;4.87;65.42;100222.52;103075;1317;139391;-79
2021/12/11 11:53:49;;;;;;;1.00;1.00;;;;;;;4.93;65.35;100222.84;103360;1316;109123;-79
2021/12/11 11:56:25;;;;;;;0.90;0.90;;;;;;;4.99;64.95;100223.50;103270;1315;140717;-79
2021/12/11 11:58:53;;;;;;;1.00;1.00;;;;;;;4.98;64.67;100227.55;102752;1316;94493;-78
2021/12/11 12:01:25;;;;;;;0.90;0.90;;;;;;;4.95;64.44;100230.92;102711;1316;109352;-78